Time;durP1;ratioP1;P1;durP2;ratioP2;P2;SDS_P1;SDS_P2;PMS_P1;PMS_P2;Temp;Humidity;BMP_temperature;BMP_pressure;BME280_temperature;BME280_humidity;BME280_pressure;Samples;Min_cycle;Max_cycle;Signal;HPM_P1;HPM_P2
2022/08/15 00:02:49;;;;;;;1999.90;999.90;;;;;;;18.09;100.00;98931.03;5054654;28;20047;-51
2022/08/15 00:05:34;;;;;;;1999.90;999.90;;;;;;;18.07;100.00;98927.63;5057500;28;20821;-52
2022/08/15 00:08:20;;;;;;;1999.90;999.90;;;;;;;17.88;100.00;98923.63;5052594;28;20074;-52
2022/08/15 00:11:09;;;;;;;1999.90;999.90;;;;;;;18.06;100.00;98920.63;5051599;28;20056;-52
2022/08/15 00:13:57;;;;;;;1999.90;999.90;;;;;;;18.14;100.00;98911.22;5051730;28;20152;-52
2022/08/15 00:16:43;;;;;;;1999.90;999.90;;;;;;;17.98;100.00;98911.41;5052140;28;20404;-53
2022/08/15 00:19:30;;;;;;;1999.90;999.90;;;;;;;18.04;100.00;98910.16;5050220;28;20072;-52
2022/08/15 00:22:18;;;;;;;1999.90;999.90;;;;;;;17.90;100.00;98907.59;5051760;28;20052;-53
2022/08/15 00:25:03;;;;;;;1999.90;999.90;;;;;;;17.78;100.00;98906.66;5050855;28;20064;-52
2022/08/15 00:27:48;;;;;;;1999.90;999.90;;;;;;;17.86;100.00;98901.69;5056102;28;20040;-52
2022/08/15 00:30:36;;;;;;;1999.90;999.90;;;;;;;17.96;100.00;98909.84;5053999;28;20183;-53
2022/08/15 00:33:21;;;;;;;1999.90;999.90;;;;;;;17.84;100.00;98910.66;5053029;28;20053;-53
2022/08/15 00:36:07;;;;;;;1999.90;999.90;;;;;;;17.72;100.00;98905.25;5058134;28;20040;-52
2022/08/15 00:38:53;;;;;;;1999.90;999.90;;;;;;;17.81;100.00;98901.16;5054703;28;20499;-52
2022/08/15 00:41:40;;;;;;;1999.90;999.90;;;;;;;17.89;100.00;98892.69;5055080;28;20048;-52
2022/08/15 00:44:46;;;;;;;1999.90;999.90;;;;;;;17.70;100.00;98903.66;5056746;28;20055;-52
2022/08/15 00:47:31;;;;;;;1999.90;999.90;;;;;;;17.72;100.00;98907.91;5057193;28;20471;-52
2022/08/15 00:50:16;;;;;;;1999.90;999.90;;;;;;;17.69;100.00;98915.19;5057504;28;20045;-52
2022/08/15 00:53:06;;;;;;;1999.90;999.90;;;;;;;17.89;100.00;98903.28;5056854;28;20082;-52
2022/08/15 00:55:51;;;;;;;1999.90;999.90;;;;;;;17.77;100.00;98906.75;5058013;28;20082;-53
2022/08/15 00:58:37;;;;;;;1999.90;999.90;;;;;;;17.79;100.00;98907.50;5053091;28;20294;-51
2022/08/15 01:01:22;;;;;;;1999.90;999.90;;;;;;;17.78;100.00;98903.16;5055885;28;20049;-52
2022/08/15 01:04:09;;;;;;;1999.90;999.90;;;;;;;17.82;100.00;98899.34;5054151;28;20114;-52
2022/08/15 01:06:58;;;;;;;1999.90;999.90;;;;;;;17.83;100.00;98901.88;5059364;28;20045;-51
2022/08/15 01:09:42;;;;;;;1999.90;999.90;;;;;;;17.68;100.00;98921.47;5053913;28;20052;-52
2022/08/15 01:12:27;;;;;;;1999.90;999.90;;;;;;;17.63;100.00;98924.41;5056645;28;20130;-53
2022/08/15 01:15:14;;;;;;;1999.90;999.90;;;;;;;17.46;100.00;98914.13;5053780;28;20228;-51
2022/08/15 01:18:00;;;;;;;1999.90;999.90;;;;;;;17.41;100.00;98905.63;5055381;28;20448;-51
2022/08/15 01:20:45;;;;;;;1999.90;999.90;;;;;;;17.47;100.00;98916.66;5055488;28;20049;-51
2022/08/15 01:23:56;;;;;;;1999.90;999.90;;;;;;;17.51;100.00;98920.78;5058313;28;20089;-52
2022/08/15 01:26:41;;;;;;;1999.90;999.90;;;;;;;17.36;100.00;98918.34;5054663;28;20060;-51
2022/08/15 01:29:27;;;;;;;1999.90;999.90;;;;;;;17.27;100.00;98917.16;5051242;28;20106;-51
2022/08/15 01:32:13;;;;;;;1999.90;999.90;;;;;;;17.50;100.00;98921.75;5055287;28;20140;-51
2022/08/15 01:35:02;;;;;;;1999.90;999.90;;;;;;;17.67;100.00;98919.75;5054173;28;20064;-52
2022/08/15 01:37:51;;;;;;;1999.90;999.90;;;;;;;17.64;100.00;98917.31;5040015;28;20131;-52
2022/08/15 01:40:58;;;;;;;1999.90;999.90;;;;;;;17.58;100.00;98917.72;5052705;28;20562;-52
2022/08/15 01:44:13;;;;;;;1999.90;999.90;;;;;;;17.53;100.00;98916.25;5053187;28;20563;-52
2022/08/15 01:47:25;;;;;;;1999.90;999.90;;;;;;;17.38;100.00;98905.84;5051183;28;20059;-52
2022/08/15 01:50:23;;;;;;;1999.90;999.90;;;;;;;17.56;100.00;98909.91;5013328;28;20048;-51
2022/08/15 01:53:27;;;;;;;1999.90;999.90;;;;;;;17.60;100.00;98907.88;5049255;28;20098;-52
2022/08/15 01:56:20;;;;;;;1999.90;999.90;;;;;;;17.54;100.00;98903.84;5064285;28;20183;-53
2022/08/15 01:59:10;;;;;;;1999.90;999.90;;;;;;;17.38;100.00;98904.03;5051552;28;20045;-51
2022/08/15 02:02:02;;;;;;;1999.90;999.90;;;;;;;17.34;100.00;98896.41;5051618;28;20055;-52
2022/08/15 02:04:47;;;;;;;1999.90;999.90;;;;;;;17.32;100.00;98896.50;5051750;28;20052;-51
2022/08/15 02:07:32;;;;;;;1999.90;999.90;;;;;;;17.26;100.00;98899.59;5063243;28;20502;-52
2022/08/15 02:10:18;;;;;;;1999.90;999.90;;;;;;;17.35;100.00;98885.72;5050766;28;20083;-51
2022/08/15 02:13:04;;;;;;;1999.90;999.90;;;;;;;17.30;100.00;98893.13;5050616;28;20079;-52
2022/08/15 02:15:52;;;;;;;1999.90;999.90;;;;;;;17.37;100.00;98881.16;5049521;28;20049;-52
2022/08/15 02:18:36;;;;;;;1999.90;999.90;;;;;;;17.30;100.00;98882.53;5053214;28;20047;-52
2022/08/15 02:21:21;;;;;;;1999.90;999.90;;;;;;;17.35;100.00;98883.06;5057756;28;20083;-52
2022/08/15 02:24:10;;;;;;;1999.90;999.90;;;;;;;17.26;100.00;98895.13;5054213;28;20049;-51
2022/08/15 02:26:55;;;;;;;1999.90;999.90;;;;;;;17.20;100.00;98886.75;5052837;28;20064;-52
2022/08/15 02:29:40;;;;;;;1999.90;999.90;;;;;;;17.21;100.00;98891.09;5047718;28;20138;-51
2022/08/15 02:32:25;;;;;;;1999.90;999.90;;;;;;;17.15;100.00;98886.19;5049934;28;20080;-50
2022/08/15 02:35:12;;;;;;;1999.90;999.90;;;;;;;16.92;100.00;98885.91;5050380;28;20063;-50
2022/08/15 02:38:01;;;;;;;1999.90;999.90;;;;;;;16.98;100.00;98898.75;5058565;28;20056;-52
2022/08/15 02:40:49;;;;;;;1999.90;999.90;;;;;;;16.95;100.00;98891.00;5052283;28;20180;-51
2022/08/15 02:43:43;;;;;;;1999.90;999.90;;;;;;;16.98;100.00;98882.03;5052470;28;20094;-52
2022/08/15 02:46:29;;;;;;;1999.90;999.90;;;;;;;17.06;100.00;98879.72;5054932;28;20094;-52
2022/08/15 02:49:18;;;;;;;1999.90;999.90;;;;;;;17.01;100.00;98882.69;5051307;28;20074;-53
2022/08/15 02:52:03;;;;;;;1999.90;999.90;;;;;;;17.00;100.00;98872.22;5055170;28;20098;-50
2022/08/15 02:54:50;;;;;;;1999.90;999.90;;;;;;;16.99;100.00;98883.72;5049689;28;20868;-52
2022/08/15 02:57:34;;;;;;;1999.90;999.90;;;;;;;16.90;100.00;98877.25;5054323;28;20107;-52
2022/08/15 03:00:20;;;;;;;1999.90;999.90;;;;;;;16.93;100.00;98881.47;5058932;28;20056;-52
2022/08/15 03:03:11;;;;;;;1999.90;999.90;;;;;;;16.99;100.00;98871.34;5060304;28;20050;-51
2022/08/15 03:05:57;;;;;;;1999.90;999.90;;;;;;;16.97;100.00;98875.91;5057524;28;20109;-51
2022/08/15 03:08:42;;;;;;;1999.90;999.90;;;;;;;16.89;100.00;98862.31;5056824;28;20085;-52
2022/08/15 03:11:28;;;;;;;1999.90;999.90;;;;;;;17.04;100.00;98857.81;5056560;28;20048;-50
2022/08/15 03:14:18;;;;;;;1999.90;999.90;;;;;;;17.08;100.00;98856.66;5057713;28;20056;-52
2022/08/15 03:17:05;;;;;;;1999.90;999.90;;;;;;;17.06;100.00;98858.56;5054347;28;20667;-50
2022/08/15 03:19:50;;;;;;;1999.90;999.90;;;;;;;17.08;100.00;98859.31;5051653;28;20040;-52
2022/08/15 03:22:43;;;;;;;1999.90;999.90;;;;;;;17.06;100.00;98853.25;5053989;28;20040;-51
2022/08/15 03:25:27;;;;;;;;;;;;;;;17.12;100.00;98850.22;5064674;28;20571;-52
2022/08/15 03:28:14;;;;;;;1999.90;999.90;;;;;;;17.05;100.00;98841.00;5054071;28;19931;-51
2022/08/15 03:31:05;;;;;;;1999.90;999.90;;;;;;;16.90;100.00;98842.00;5050850;28;20203;-50
2022/08/15 03:33:51;;;;;;;1999.90;999.90;;;;;;;16.97;100.00;98854.75;5044900;28;20134;-52
2022/08/15 03:36:36;;;;;;;1999.90;999.90;;;;;;;17.05;100.00;98856.88;5052522;28;20086;-52
2022/08/15 03:39:21;;;;;;;1999.90;999.90;;;;;;;17.06;100.00;98858.56;5051364;28;20076;-51
2022/08/15 03:42:10;;;;;;;1999.90;999.90;;;;;;;16.94;100.00;98857.59;5056884;28;20059;-51
2022/08/15 03:44:56;;;;;;;1999.90;999.90;;;;;;;16.92;100.00;98850.69;5061521;28;20047;-53
2022/08/15 03:47:41;;;;;;;1999.90;999.90;;;;;;;16.99;100.00;98857.28;5053404;28;20492;-51
2022/08/15 03:50:27;;;;;;;1999.90;999.90;;;;;;;16.89;100.00;98857.03;5055054;28;20123;-52
2022/08/15 03:53:18;;;;;;;1999.90;999.90;;;;;;;16.88;100.00;98865.09;5056285;28;20379;-51
2022/08/15 03:56:05;;;;;;;1999.90;999.90;;;;;;;17.02;100.00;98863.19;5051108;28;20108;-51
2022/08/15 03:58:56;;;;;;;1999.90;999.90;;;;;;;16.92;100.00;98859.47;5051991;28;20733;-51
2022/08/15 04:01:41;;;;;;;1999.90;999.90;;;;;;;17.13;100.00;98853.72;5050492;28;20088;-52
2022/08/15 04:04:26;;;;;;;1999.90;999.90;;;;;;;17.12;100.00;98854.66;5050954;28;20557;-51
2022/08/15 04:07:11;;;;;;;1999.90;999.90;;;;;;;17.09;100.00;98860.16;5051687;28;20194;-50
2022/08/15 04:09:59;;;;;;;1999.90;999.90;;;;;;;17.00;100.00;98864.28;5054751;28;20100;-52
2022/08/15 04:12:44;;;;;;;1999.90;999.90;;;;;;;17.15;100.00;98863.22;5057402;28;20213;-51
2022/08/15 04:15:28;;;;;;;1999.90;999.90;;;;;;;17.19;100.00;98861.22;5044380;28;20093;-52
2022/08/15 04:18:13;;;;;;;1999.90;999.90;;;;;;;17.22;100.00;98851.31;5050039;28;20052;-52
2022/08/15 04:21:00;;;;;;;1999.90;999.90;;;;;;;17.21;100.00;98856.69;5054477;28;20090;-51
2022/08/15 04:23:48;;;;;;;1999.90;999.90;;;;;;;17.25;100.00;98855.53;5061250;28;20098;-51
2022/08/15 04:26:34;;;;;;;1999.90;999.90;;;;;;;17.47;100.00;98861.06;5071667;28;20091;-51
2022/08/15 04:29:19;;;;;;;1999.90;999.90;;;;;;;17.38;100.00;98869.63;5052477;28;20071;-51
2022/08/15 04:32:05;;;;;;;1999.90;999.90;;;;;;;17.45;100.00;98865.63;5052002;28;20049;-52
2022/08/15 04:34:50;;;;;;;1999.90;999.90;;;;;;;17.57;100.00;98861.28;5051646;28;20083;-51
2022/08/15 04:37:37;;;;;;;1999.90;999.90;;;;;;;17.95;100.00;98860.47;5053219;28;20129;-52
2022/08/15 04:40:22;;;;;;;1999.90;999.90;;;;;;;17.78;100.00;98866.06;5068034;28;20049;-52
2022/08/15 04:43:06;;;;;;;1999.90;999.90;;;;;;;17.86;100.00;98877.00;5055760;28;20639;-51
2022/08/15 04:45:52;;;;;;;1999.90;999.90;;;;;;;18.32;100.00;98871.09;5055038;28;20130;-52
2022/08/15 04:48:37;;;;;;;1999.90;999.90;;;;;;;18.29;100.00;98864.19;5055680;28;20187;-53
2022/08/15 04:51:21;;;;;;;1999.90;999.90;;;;;;;18.64;100.00;98866.13;5052089;28;20123;-52
2022/08/15 04:54:05;;;;;;;1999.90;999.90;;;;;;;18.63;100.00;98867.09;5055019;28;20123;-52
2022/08/15 04:56:51;;;;;;;1999.90;999.90;;;;;;;19.10;100.00;98868.88;5052706;28;20519;-52
2022/08/15 04:59:36;;;;;;;1999.90;999.90;;;;;;;19.24;100.00;98870.53;5056861;28;20138;-51
2022/08/15 05:02:31;;;;;;;1999.90;999.90;;;;;;;19.04;100.00;98872.00;5055367;28;20127;-53
2022/08/15 05:05:16;;;;;;;1999.90;999.90;;;;;;;19.45;100.00;98872.50;5062022;28;20081;-51
2022/08/15 05:08:01;;;;;;;1999.90;999.90;;;;;;;19.28;100.00;98864.00;5057640;28;20076;-52
2022/08/15 05:10:54;;;;;;;1999.90;999.90;;;;;;;19.67;100.00;98864.63;5062529;28;20048;-52
2022/08/15 05:13:41;;;;;;;1999.90;999.90;;;;;;;19.56;100.00;98859.25;5054701;28;20197;-52
2022/08/15 05:16:29;;;;;;;1999.90;999.90;;;;;;;19.67;100.00;98856.66;5055784;28;20051;-51
2022/08/15 05:19:13;;;;;;;1999.90;999.90;;;;;;;19.80;100.00;98859.19;5056592;28;20056;-52
2022/08/15 05:21:58;;;;;;;1999.90;999.90;;;;;;;19.71;100.00;98854.59;5051063;28;20124;-52
2022/08/15 05:24:42;;;;;;;1999.90;999.90;;;;;;;20.16;100.00;98858.09;5053271;28;20786;-52
2022/08/15 05:27:27;;;;;;;1999.90;999.90;;;;;;;20.07;100.00;98858.84;5054550;28;20415;-52
2022/08/15 05:30:11;;;;;;;1999.90;999.90;;;;;;;20.51;100.00;98850.00;5057123;28;20079;-52
2022/08/15 05:33:15;;;;;;;1999.90;999.90;;;;;;;20.57;100.00;98848.63;5055962;28;20454;-52
2022/08/15 05:36:04;;;;;;;1999.90;999.90;;;;;;;21.04;100.00;98851.88;5057282;28;20991;-51
2022/08/15 05:38:55;;;;;;;1999.90;999.90;;;;;;;21.18;100.00;98861.34;5056492;28;20045;-53
2022/08/15 05:42:15;;;;;;;1999.90;999.90;;;;;;;21.43;100.00;98849.53;5064623;28;20836;-52
2022/08/15 05:45:14;;;;;;;1999.90;999.90;;;;;;;21.29;100.00;98853.34;5052254;28;20082;-52
2022/08/15 05:48:31;;;;;;;1999.90;999.90;;;;;;;21.58;100.00;98847.34;5049581;28;20106;-54
2022/08/15 05:51:27;;;;;;;1999.90;999.90;;;;;;;21.73;100.00;98843.38;5052505;28;20068;-53
2022/08/15 05:54:38;;;;;;;1999.90;999.90;;;;;;;21.88;100.00;98844.72;5064288;28;20079;-52
2022/08/15 05:57:30;;;;;;;1999.90;999.90;;;;;;;21.66;100.00;98847.56;5050917;28;20086;-53
2022/08/15 06:00:21;;;;;;;1999.90;999.90;;;;;;;21.60;100.00;98835.59;5048771;28;20041;-52
2022/08/15 06:03:11;;;;;;;1999.90;999.90;;;;;;;21.62;100.00;98835.47;5053111;28;20059;-54
2022/08/15 06:06:02;;;;;;;1999.90;999.90;;;;;;;21.99;100.00;98829.63;5050963;28;20107;-53
2022/08/15 06:08:53;;;;;;;1999.90;999.90;;;;;;;21.82;100.00;98828.44;5044983;28;20044;-52
2022/08/15 06:11:43;;;;;;;1999.90;999.90;;;;;;;22.54;100.00;98830.91;5059223;28;20083;-52
2022/08/15 06:14:27;;;;;;;1999.90;999.90;;;;;;;22.59;100.00;98830.53;5051833;28;20537;-52
2022/08/15 06:17:42;;;;;;;1999.90;999.90;;;;;;;23.06;100.00;98828.03;5053851;28;20236;-52
2022/08/15 06:20:42;;;;;;;1999.90;999.90;;;;;;;23.12;100.00;98826.63;5046475;28;20041;-52
2022/08/15 06:23:44;;;;;;;1999.90;999.90;;;;;;;23.26;100.00;98837.72;5045620;28;20463;-53
2022/08/15 06:26:47;;;;;;;1999.90;999.90;;;;;;;22.69;100.00;98847.38;5051043;28;20056;-53
2022/08/15 06:30:01;;;;;;;1999.90;999.90;;;;;;;23.48;100.00;98839.22;5049752;28;20083;-53
2022/08/15 06:32:53;;;;;;;1999.90;999.90;;;;;;;23.82;100.00;98849.44;5049166;28;20041;-53
2022/08/15 06:35:54;;;;;;;1999.90;999.90;;;;;;;23.89;100.00;98849.72;5052134;28;20087;-54
2022/08/15 06:38:52;;;;;;;1999.90;999.90;;;;;;;24.03;100.00;98859.91;5052142;28;20795;-53
2022/08/15 06:42:16;;;;;;;1999.90;999.90;;;;;;;24.56;100.00;98853.06;5051698;28;20087;-53
2022/08/15 06:45:17;;;;;;;1999.90;999.90;;;;;;;24.67;100.00;98850.19;5039607;28;20109;-52
2022/08/15 06:48:09;;;;;;;1999.90;999.90;;;;;;;24.33;100.00;98840.06;5044050;28;20094;-53
2022/08/15 06:50:56;;;;;;;1999.90;999.90;;;;;;;24.38;100.00;98839.63;5057083;28;20074;-53
2022/08/15 06:53:55;;;;;;;1999.90;999.90;;;;;;;25.09;100.00;98836.16;5053172;28;20056;-53
2022/08/15 06:56:51;;;;;;;1999.90;999.90;;;;;;;25.88;100.00;98830.78;5057830;28;20052;-52
2022/08/15 06:59:57;;;;;;;1999.90;999.90;;;;;;;25.55;100.00;98829.72;5056464;28;20545;-53
2022/08/15 07:03:05;;;;;;;1999.90;999.90;;;;;;;25.67;100.00;98837.47;5059205;28;20772;-52
2022/08/15 07:05:54;;;;;;;1999.90;999.90;;;;;;;26.09;100.00;98842.94;5058787;28;20616;-53
2022/08/15 07:08:50;;;;;;;1999.90;999.90;;;;;;;26.06;100.00;98837.88;5054477;28;20049;-54
2022/08/15 07:12:01;;;;;;;1999.90;999.90;;;;;;;25.41;100.00;98846.34;5055654;28;20048;-54
2022/08/15 07:14:57;;;;;;;1999.90;999.90;;;;;;;25.73;100.00;98847.56;5060016;28;20063;-53
2022/08/15 07:17:49;;;;;;;1999.90;999.90;;;;;;;25.54;100.00;98848.63;5056794;28;20389;-53
2022/08/15 07:20:36;;;;;;;1999.90;999.90;;;;;;;25.88;100.00;98856.75;5059535;28;20044;-54
2022/08/15 07:23:25;;;;;;;1999.90;999.90;;;;;;;26.66;100.00;98850.41;5059868;28;20056;-52
2022/08/15 07:26:11;;;;;;;1999.90;999.90;;;;;;;26.16;100.00;98851.19;5055622;28;20535;-54
2022/08/15 07:29:00;;;;;;;1999.90;999.90;;;;;;;26.93;100.00;98850.09;5057356;28;20045;-53
2022/08/15 07:31:45;;;;;;;1999.90;999.90;;;;;;;26.72;100.00;98855.09;5056497;28;20064;-53
2022/08/15 07:34:31;;;;;;;1999.90;999.90;;;;;;;26.64;100.00;98853.22;5057919;28;20407;-53
2022/08/15 07:37:17;;;;;;;1999.90;999.90;;;;;;;27.04;100.00;98846.25;5055144;28;20044;-53
2022/08/15 07:40:18;;;;;;;1999.90;999.90;;;;;;;27.52;100.00;98849.13;5064835;28;20157;-54
2022/08/15 07:43:25;;;;;;;1999.90;999.90;;;;;;;27.15;100.00;98840.56;5055937;28;20762;-53
2022/08/15 07:46:24;;;;;;;1999.90;999.90;;;;;;;27.19;100.00;98838.38;5053159;28;20050;-53
2022/08/15 07:49:34;;;;;;;1999.90;999.90;;;;;;;27.40;100.00;98841.41;5054116;28;20060;-53
2022/08/15 07:52:21;;;;;;;1999.90;999.90;;;;;;;27.75;100.00;98836.63;5057738;28;20048;-54
2022/08/15 07:55:19;;;;;;;1999.90;999.90;;;;;;;27.93;100.00;98848.06;5071667;28;20072;-53
2022/08/15 07:58:16;;;;;;;1999.90;999.90;;;;;;;28.06;100.00;98838.63;5056881;28;20558;-53
2022/08/15 08:01:13;;;;;;;1999.90;999.90;;;;;;;28.10;100.00;98831.88;5055119;28;20135;-54
2022/08/15 08:04:12;;;;;;;1999.90;999.90;;;;;;;27.94;100.00;98830.91;5065805;28;20486;-56
2022/08/15 08:06:59;;;;;;;1999.90;999.90;;;;;;;27.78;100.00;98836.31;5054093;28;20105;-54
2022/08/15 08:09:55;;;;;;;1999.90;999.90;;;;;;;28.12;100.00;98836.06;5056025;28;20045;-54
2022/08/15 08:13:06;;;;;;;1999.90;999.90;;;;;;;28.28;100.00;98837.03;5041609;28;20049;-56
2022/08/15 08:16:12;;;;;;;1999.90;999.90;;;;;;;28.74;100.00;98832.59;5050801;28;20075;-58
2022/08/15 08:19:13;;;;;;;1999.90;999.90;;;;;;;28.53;100.00;98833.19;5051718;28;20052;-56
2022/08/15 08:22:11;;;;;;;1999.90;999.90;;;;;;;28.82;100.00;98837.91;5050564;28;20407;-54
2022/08/15 08:25:14;;;;;;;1999.90;999.90;;;;;;;29.21;100.00;98825.34;5052619;28;20056;-60
2022/08/15 08:28:09;;;;;;;1999.90;999.90;;;;;;;28.48;100.00;98837.47;5050426;28;20048;-56
2022/08/15 08:31:21;;;;;;;1999.90;999.90;;;;;;;29.45;100.00;98832.41;5054389;28;20545;-59
2022/08/15 08:34:35;;;;;;;1999.90;999.90;;;;;;;28.73;100.00;98828.22;5064582;28;20097;-58
2022/08/15 08:37:34;;;;;;;1999.90;999.90;;;;;;;29.30;100.00;98824.28;5012822;28;20103;-58
2022/08/15 08:43:43;;;;;;;1999.90;999.90;;;;;;;29.21;100.00;98814.56;5053065;28;20096;-59
2022/08/15 08:46:37;;;;;;;1999.90;999.90;;;;;;;29.52;100.00;98818.00;5050169;28;20481;-60
2022/08/15 08:50:10;;;;;;;1999.90;999.90;;;;;;;29.03;100.00;98820.28;5050977;28;20139;-60
2022/08/15 08:53:13;;;;;;;1999.90;999.90;;;;;;;29.33;100.00;98815.81;5050947;28;20076;-59
2022/08/15 08:56:16;;;;;;;1999.90;999.90;;;;;;;29.25;100.00;98818.56;5051034;28;20040;-59
2022/08/15 08:59:17;;;;;;;1999.90;999.90;;;;;;;29.61;100.00;98820.63;5050713;28;20056;-62
2022/08/15 09:02:13;;;;;;;1999.90;999.90;;;;;;;29.87;100.00;98815.63;5045523;28;20131;-60
2022/08/15 09:05:07;;;;;;;1999.90;999.90;;;;;;;30.63;100.00;98821.59;5050489;28;20091;-57
2022/08/15 09:07:58;;;;;;;1999.90;999.90;;;;;;;30.32;100.00;98819.16;5044885;28;20060;-60
2022/08/15 09:10:47;;;;;;;1999.90;999.90;;;;;;;30.41;100.00;98825.28;5046454;28;20072;-61
2022/08/15 09:13:37;;;;;;;1999.90;999.90;;;;;;;30.40;100.00;98815.50;5047553;28;20048;-60
2022/08/15 09:16:34;;;;;;;1999.90;999.90;;;;;;;30.26;100.00;98814.53;5047675;28;20120;-57
2022/08/15 09:19:32;;;;;;;1999.90;999.90;;;;;;;29.28;100.00;98810.97;5047958;28;20550;-63
2022/08/15 09:22:18;;;;;;;1999.90;999.90;;;;;;;27.81;100.00;98813.63;5050965;28;20114;-59
2022/08/15 09:25:03;;;;;;;1999.90;999.90;;;;;;;29.77;100.00;98812.38;5049197;28;20048;-61
2022/08/15 09:28:01;;;;;;;1999.90;999.90;;;;;;;30.36;100.00;98814.22;5048887;28;20072;-61
2022/08/15 09:30:48;;;;;;;1999.90;999.90;;;;;;;30.46;100.00;98815.59;5047428;28;20045;-60
2022/08/15 09:34:00;;;;;;;1999.90;999.90;;;;;;;29.29;100.00;98812.66;5044450;28;20059;-65
2022/08/15 09:36:57;;;;;;;1999.90;999.90;;;;;;;29.85;100.00;98809.59;5052149;28;20052;-60
2022/08/15 09:40:06;;;;;;;1999.90;999.90;;;;;;;30.43;100.00;98818.66;5052481;28;20072;-61
2022/08/15 09:43:16;;;;;;;1999.90;999.90;;;;;;;30.88;96.51;98805.06;5054639;28;20134;-61
2022/08/15 09:46:13;;;;;;;1999.90;999.90;;;;;;;30.47;92.97;98803.75;5051678;28;20538;-60
2022/08/15 09:49:27;;;;;;;1999.90;999.90;;;;;;;31.07;98.24;98807.13;5053188;28;20040;-60
2022/08/15 09:52:31;;;;;;;1999.90;999.90;;;;;;;30.77;95.93;98803.69;5046825;28;20091;-60
2022/08/15 09:55:34;;;;;;;1999.90;999.90;;;;;;;30.37;90.89;98794.28;5049325;28;20102;-58
2022/08/15 09:58:37;;;;;;;1999.90;999.90;;;;;;;30.26;90.17;98779.44;5048028;28;20044;-59
2022/08/15 10:01:31;;;;;;;1999.90;999.90;;;;;;;30.19;89.02;98779.34;5053999;28;20053;-58
2022/08/15 10:04:19;;;;;;;1999.90;999.90;;;;;;;30.40;87.56;98775.84;5061561;28;20617;-60
2022/08/15 10:07:04;;;;;;;1999.90;999.90;;;;;;;30.68;85.29;98769.66;5051702;28;20048;-61
2022/08/15 10:10:29;;;;;;;1999.90;999.90;;;;;;;30.82;87.72;98774.22;5058275;28;20721;-60
2022/08/15 10:13:27;;;;;;;1999.90;999.90;;;;;;;30.34;85.05;98762.25;5061892;28;20043;-62
2022/08/15 10:16:41;;;;;;;1999.90;999.90;;;;;;;30.98;84.96;98766.91;5061170;28;20137;-58
2022/08/15 10:19:38;;;;;;;1999.90;999.90;;;;;;;31.08;82.85;98757.41;5059838;28;20032;-59
2022/08/15 10:22:23;;;;;;;1999.90;999.90;;;;;;;29.84;86.09;98761.22;5055701;28;20098;-60
2022/08/15 10:25:22;;;;;;;1999.90;999.90;;;;;;;31.03;87.34;98753.59;5053043;28;20648;-62
2022/08/15 10:28:14;;;;;;;1999.90;999.90;;;;;;;30.57;83.60;98754.81;5051709;28;20032;-59
2022/08/15 10:30:58;;;;;;;1999.90;999.90;;;;;;;31.20;84.52;98752.31;5052555;28;20045;-58
2022/08/15 10:33:48;;;;;;;1999.90;999.90;;;;;;;30.75;81.97;98748.97;5053038;28;20048;-60
2022/08/15 10:36:35;;;;;;;1999.90;999.90;;;;;;;30.76;85.35;98747.94;5050264;28;20091;-58
2022/08/15 10:40:07;;;;;;;1999.90;999.90;;;;;;;31.25;79.01;98744.44;5052609;28;20082;-60
2022/08/15 10:43:11;;;;;;;1999.90;999.90;;;;;;;31.75;84.06;98750.63;5053494;28;20109;-60
2022/08/15 10:46:04;;;;;;;1999.90;999.90;;;;;;;30.59;79.94;98741.13;5050974;28;20068;-60
2022/08/15 10:49:17;;;;;;;1999.90;999.90;;;;;;;30.73;87.60;98748.31;5053635;28;20052;-60
2022/08/15 10:52:20;;;;;;;1999.90;999.90;;;;;;;31.30;79.80;98750.09;5054197;28;20056;-60
2022/08/15 10:55:25;;;;;;;1999.90;999.90;;;;;;;30.81;78.06;98732.03;5050170;28;20682;-60
2022/08/15 10:58:10;;;;;;;1999.90;999.90;;;;;;;31.07;77.28;98735.97;5050985;28;20138;-59
2022/08/15 11:01:07;;;;;;;1999.90;999.90;;;;;;;31.72;78.79;98744.75;5052640;28;20094;-58
2022/08/15 11:04:05;;;;;;;1999.90;999.90;;;;;;;31.39;79.69;98737.25;5056427;28;20071;-60
2022/08/15 11:06:50;;;;;;;1999.90;999.90;;;;;;;30.38;82.28;98734.66;5057810;28;20075;-60
2022/08/15 11:09:35;;;;;;;1999.90;999.90;;;;;;;30.06;81.70;98735.94;5057511;28;20072;-58
2022/08/15 11:12:22;;;;;;;1999.90;999.90;;;;;;;29.15;85.02;98732.56;5058806;28;20051;-58
2022/08/15 11:15:32;;;;;;;1999.90;999.90;;;;;;;29.47;86.20;98730.56;5057777;28;20071;-60
2022/08/15 11:18:24;;;;;;;1999.90;999.90;;;;;;;29.99;83.50;98719.66;5060072;28;20055;-60
2022/08/15 11:21:24;;;;;;;1999.90;999.90;;;;;;;30.27;83.79;98732.47;5058139;28;20060;-62
2022/08/15 11:24:10;;;;;;;1999.90;999.90;;;;;;;29.43;84.87;98734.66;5057633;28;20163;-59
2022/08/15 11:27:13;;;;;;;1999.90;999.90;;;;;;;29.90;87.89;98726.22;5057998;28;20143;-60
2022/08/15 11:29:58;;;;;;;1999.90;999.90;;;;;;;30.30;85.75;98715.91;5056640;28;20094;-57
2022/08/15 11:32:42;;;;;;;1999.90;999.90;;;;;;;30.08;85.65;98719.56;5054182;28;20083;-58
2022/08/15 11:35:31;;;;;;;1999.90;999.90;;;;;;;30.17;84.37;98713.03;5054258;28;21390;-62
2022/08/15 11:38:16;;;;;;;1999.90;999.90;;;;;;;29.90;85.51;98715.41;5053070;28;20533;-62
2022/08/15 11:41:02;;;;;;;1999.90;999.90;;;;;;;28.88;89.58;98723.19;5051517;28;20060;-59
2022/08/15 11:43:51;;;;;;;1999.90;999.90;;;;;;;28.69;90.58;98723.69;5053356;28;20094;-62
2022/08/15 11:46:37;;;;;;;1999.90;999.90;;;;;;;29.02;89.86;98713.50;5055518;28;20134;-60
2022/08/15 11:49:33;;;;;;;1999.90;999.90;;;;;;;30.03;87.54;98720.97;5052431;28;20076;-59
2022/08/15 11:52:50;;;;;;;1999.90;999.90;;;;;;;29.78;87.81;98720.44;5053798;28;20044;-60
2022/08/15 11:55:35;;;;;;;1999.90;999.90;;;;;;;29.11;89.10;98717.78;5053381;28;20081;-58
2022/08/15 11:58:28;;;;;;;1999.90;999.90;;;;;;;30.10;87.85;98712.97;5057710;28;20040;-60
2022/08/15 12:01:29;;;;;;;1999.90;999.90;;;;;;;29.89;84.76;98715.59;5054484;28;20068;-62
2022/08/15 12:04:26;;;;;;;1999.90;999.90;;;;;;;28.96;86.07;98711.53;5050119;28;20055;-58
2022/08/15 12:07:28;;;;;;;1999.90;999.90;;;;;;;29.17;88.73;98711.66;5048189;28;20047;-57
2022/08/15 12:10:35;;;;;;;1999.90;999.90;;;;;;;29.70;83.68;98700.81;5049136;28;20083;-55
2022/08/15 12:13:24;;;;;;;1999.90;999.90;;;;;;;30.02;79.42;98697.69;5050289;28;20167;-57
2022/08/15 12:16:23;;;;;;;1999.90;999.90;;;;;;;29.99;79.77;98711.56;5051943;28;20392;-58
2022/08/15 12:19:29;;;;;;;1999.90;999.90;;;;;;;30.26;77.92;98701.13;5052316;28;20503;-58
2022/08/15 12:22:34;;;;;;;1999.90;999.90;;;;;;;30.58;81.02;98701.63;5052576;28;20048;-61
2022/08/15 12:25:19;;;;;;;1999.90;999.90;;;;;;;30.34;79.53;98709.09;5052088;28;20118;-56
2022/08/15 12:28:05;;;;;;;1999.90;999.90;;;;;;;30.53;80.74;98691.41;5052311;28;20040;-57
2022/08/15 12:31:00;;;;;;;1999.90;999.90;;;;;;;30.83;76.93;98688.59;5049172;28;20041;-58
2022/08/15 12:33:46;;;;;;;1999.90;999.90;;;;;;;30.98;77.25;98688.50;5052003;28;20040;-58
2022/08/15 12:36:32;;;;;;;1999.90;999.90;;;;;;;30.54;77.91;98686.84;5047539;28;20068;-58
2022/08/15 12:39:18;;;;;;;1999.90;999.90;;;;;;;30.89;76.44;98685.94;5047315;28;20044;-57
2022/08/15 12:42:03;;;;;;;1999.90;999.90;;;;;;;30.96;76.90;98685.97;5049198;28;20052;-60
2022/08/15 12:44:50;;;;;;;1999.90;999.90;;;;;;;31.05;76.09;98683.97;5050937;28;20060;-59
2022/08/15 12:47:35;;;;;;;1999.90;999.90;;;;;;;30.65;76.15;98689.88;5048806;28;20053;-59